createdAt,value
2022-10-24T00:04:45.492Z,97915.75
2022-10-24T00:09:48.888Z,97922.25
2022-10-24T00:14:52.195Z,97921.72
2022-10-24T00:19:55.610Z,97927.38
2022-10-24T00:24:58.965Z,97916.81
2022-10-24T00:30:03.717Z,97911.41
2022-10-24T00:35:07.561Z,97907.88
2022-10-24T00:40:16.291Z,97901.09
2022-10-24T00:45:44.881Z,97905.72
2022-10-24T00:50:51.430Z,97900.56
2022-10-24T00:55:57.992Z,97898.13
2022-10-24T01:01:02.313Z,97886.47
2022-10-24T01:06:33.384Z,97882.94
2022-10-24T01:11:43.099Z,97881.31
2022-10-24T01:16:51.286Z,97886.75
2022-10-24T01:22:01.453Z,97885.09
2022-10-24T01:27:08.488Z,97889.69
2022-10-24T01:32:34.090Z,97882.66
2022-10-24T01:37:41.641Z,97882.94
2022-10-24T01:42:49.550Z,97894.88
2022-10-24T01:47:56.014Z,97888.91
2022-10-24T01:53:01.067Z,97887.81
2022-10-24T01:58:04.659Z,97897.56
2022-10-24T02:03:32.466Z,97897.56
2022-10-24T02:08:42.654Z,97892.16
2022-10-24T02:14:03.055Z,97898.66
2022-10-24T02:19:06.646Z,97895.94
2022-10-24T02:24:40.921Z,97906.53
2022-10-24T02:30:01.815Z,97900.28
2022-10-24T02:35:08.791Z,97909.50
2022-10-24T02:40:15.595Z,97904.09
2022-10-24T02:45:21.260Z,97899.75
2022-10-24T02:50:25.449Z,97896.75
2022-10-24T02:55:29.131Z,97896.75
2022-10-24T03:00:32.602Z,97887.81
2022-10-24T03:05:36.155Z,97894.88
2022-10-24T03:10:39.504Z,97887.56
2022-10-24T03:15:42.956Z,97892.44
2022-10-24T03:20:46.866Z,97894.59
2022-10-24T03:25:50.382Z,97882.38
2022-10-24T03:30:53.893Z,97889.19
2022-10-24T03:35:57.924Z,97897.59
2022-10-24T03:41:01.253Z,97891.31
2022-10-24T03:46:04.699Z,97900.28
2022-10-24T03:51:08.032Z,97904.34
2022-10-24T03:56:11.225Z,97895.41
2022-10-24T04:01:14.814Z,97901.66
2022-10-24T04:06:18.423Z,97894.88
2022-10-24T04:11:21.573Z,97899.22
2022-10-24T04:16:24.687Z,97896.25
2022-10-24T04:21:28.306Z,97896.78
2022-10-24T04:26:31.680Z,97892.47
2022-10-24T04:31:35.130Z,97888.41
2022-10-24T04:36:38.400Z,97891.69
2022-10-24T04:41:41.809Z,97901.19
2022-10-24T04:46:47.969Z,97898.75
2022-10-24T04:51:53.938Z,97898.75
2022-10-24T04:56:58.182Z,97908.28
2022-10-24T05:02:01.673Z,97905.03
2022-10-24T05:07:05.343Z,97910.47
2022-10-24T05:12:08.557Z,97904.78
2022-10-24T05:17:11.957Z,97909.88
2022-10-24T05:22:16.292Z,97904.69
2022-10-24T05:27:21.343Z,97912.69
2022-10-24T05:32:25.416Z,97917.25
2022-10-24T05:42:38.783Z,97918.78
2022-10-24T05:47:42.703Z,97927.09
2022-10-24T05:52:47.327Z,97933.06
2022-10-24T05:57:50.931Z,97932.97
2022-10-24T06:02:55.866Z,97947.97
2022-10-24T06:08:00.004Z,97951.09
2022-10-24T06:13:05.047Z,97951.09
2022-10-24T06:18:09.179Z,97964.50
2022-10-24T06:23:12.799Z,97966.41
2022-10-24T06:28:16.188Z,97967.91
2022-10-24T06:33:19.399Z,97971.72
2022-10-24T06:38:22.758Z,97964.72
2022-10-24T06:43:26.459Z,97969.13
2022-10-24T06:48:29.908Z,97962.00
2022-10-24T06:53:34.130Z,97963.56
2022-10-24T06:58:38.534Z,97956.84
2022-10-24T07:03:43.615Z,97966.66
2022-10-24T07:08:47.708Z,97960.88
2022-10-24T07:13:52.528Z,97967.91
2022-10-24T07:18:57.426Z,97968.59
2022-10-24T07:24:01.130Z,97974.63
2022-10-24T07:29:04.803Z,97967.91
2022-10-24T07:34:09.479Z,97968.72
2022-10-24T07:39:14.169Z,97973.59
2022-10-24T07:44:17.849Z,97964.94
2022-10-24T07:49:21.235Z,97967.09
2022-10-24T07:54:24.985Z,97955.38
2022-10-24T07:59:41.315Z,97952.28
2022-10-24T08:04:45.956Z,97958.22
2022-10-24T08:09:49.753Z,97944.81
2022-10-24T08:14:53.537Z,97941.84
2022-10-24T08:19:56.762Z,97934.97
2022-10-24T08:25:01.187Z,97936.84
2022-10-24T08:30:06.760Z,97933.19
2022-10-24T08:35:10.838Z,97929.19
2022-10-24T08:40:19.773Z,97926.81
2022-10-24T08:45:30.262Z,97928.19
2022-10-24T08:50:35.882Z,97925.97
2022-10-24T08:55:50.048Z,97919.56
2022-10-24T09:00:58.166Z,97912.13
2022-10-24T09:06:06.588Z,97903.50
2022-10-24T09:11:15.154Z,97906.44
2022-10-24T09:16:23.194Z,97908.31
2022-10-24T09:21:26.900Z,97894.28
2022-10-24T09:26:33.357Z,97889.75
2022-10-24T09:31:37.647Z,97891.59
2022-10-24T09:36:41.045Z,97887.97
2022-10-24T09:41:46.870Z,97877.56
2022-10-24T09:46:50.055Z,97867.94
2022-10-24T09:52:22.968Z,97867.56
2022-10-24T09:57:28.096Z,97867.56
2022-10-24T10:02:36.967Z,97853.22
2022-10-24T10:07:45.328Z,97849.06
2022-10-24T10:13:03.239Z,97851.22
2022-10-24T10:18:29.259Z,97851.22
2022-10-24T10:23:40.138Z,97840.56
2022-10-24T10:28:56.048Z,97840.06
2022-10-24T10:34:28.668Z,97833.31
2022-10-24T10:40:01.937Z,97834.91
2022-10-24T10:45:34.425Z,97819.13
2022-10-24T10:50:48.790Z,97823.75
2022-10-24T10:56:20.084Z,97819.72
2022-10-24T11:01:43.493Z,97819.56
2022-10-24T11:07:07.177Z,97818.97
2022-10-24T11:12:23.436Z,97805.09
2022-10-24T11:17:42.357Z,97809.69
2022-10-24T11:23:14.233Z,97799.47
2022-10-24T11:28:27.196Z,97790.47
2022-10-24T11:33:53.704Z,97789.38
2022-10-24T11:39:14.723Z,97788.16
2022-10-24T11:44:39.248Z,97787.19
2022-10-24T11:49:50.867Z,97786.09
2022-10-24T11:55:00.105Z,97775.06
2022-10-24T12:00:04.887Z,97774.72
2022-10-24T12:05:22.461Z,97779.88
2022-10-24T12:10:47.774Z,97778.56
2022-10-24T12:16:13.907Z,97775.47
2022-10-24T12:21:26.462Z,97771.69
2022-10-24T12:26:31.793Z,97765.97
2022-10-24T12:31:37.959Z,97772.84
2022-10-24T12:37:22.870Z,97765.28
2022-10-24T12:42:26.171Z,97754.75
2022-10-24T12:47:42.677Z,97764.03
2022-10-24T12:52:46.798Z,97762.28
2022-10-24T12:57:51.360Z,97754.97
2022-10-24T13:02:58.052Z,97762.53
2022-10-24T13:08:29.219Z,97756.91
2022-10-24T13:13:48.968Z,97754.00
2022-10-24T13:19:15.207Z,97758.47
2022-10-24T13:24:18.884Z,97752.59
2022-10-24T13:29:21.998Z,97749.94
2022-10-24T13:34:28.132Z,97746.16
2022-10-24T13:39:38.738Z,97748.44
2022-10-24T13:44:45.470Z,97744.75
2022-10-24T13:49:58.022Z,97743.19
2022-10-24T13:55:24.659Z,97741.88
2022-10-24T14:00:37.162Z,97737.00
2022-10-24T14:05:47.286Z,97740.69
2022-10-24T14:10:55.265Z,97733.31
2022-10-24T14:16:06.659Z,97729.09
2022-10-24T14:21:22.259Z,97723.19
2022-10-24T14:26:26.103Z,97726.34
2022-10-24T14:31:32.528Z,97723.69
2022-10-24T14:36:39.520Z,97722.19
2022-10-24T14:41:43.214Z,97732.88
2022-10-24T14:47:00.915Z,97729.69
2022-10-24T14:52:07.718Z,97728.72
2022-10-24T14:57:21.032Z,97731.78
2022-10-24T15:02:30.169Z,97727.47
2022-10-24T15:07:44.925Z,97729.69
2022-10-24T15:13:00.691Z,97734.66
2022-10-24T15:18:08.349Z,97731.13
2022-10-24T15:23:22.385Z,97739.88
2022-10-24T15:28:57.832Z,97749.16
2022-10-24T15:34:01.081Z,97754.31
2022-10-24T15:39:12.228Z,97757.03
2022-10-24T15:44:22.267Z,97768.47
2022-10-24T15:49:25.726Z,97755.72
2022-10-24T15:54:29.358Z,97758.44
2022-10-24T15:59:33.399Z,97757.06
2022-10-24T16:04:36.859Z,97761.19
2022-10-24T16:09:40.516Z,97755.22
2022-10-24T16:14:43.815Z,97753.06
2022-10-24T16:19:48.353Z,97759.59
2022-10-24T16:24:54.988Z,97759.59
2022-10-24T16:29:58.378Z,97759.59
2022-10-24T16:35:01.669Z,97750.94
2022-10-24T16:40:06.369Z,97756.09
2022-10-24T16:45:10.068Z,97736.06
2022-10-24T16:50:20.947Z,97733.06
2022-10-24T16:55:24.360Z,97734.47
2022-10-24T17:00:28.668Z,97739.38
2022-10-24T17:05:32.153Z,97739.41
2022-10-24T17:10:35.907Z,97728.03
2022-10-24T17:15:46.260Z,97735.13
2022-10-24T17:20:50.230Z,97738.09
2022-10-24T17:25:53.734Z,97730.50
2022-10-24T17:30:57.239Z,97728.09
2022-10-24T17:36:00.889Z,97727.53
2022-10-24T17:41:35.975Z,97732.44
2022-10-24T17:46:39.976Z,97732.75
2022-10-24T17:51:45.128Z,97740.59
2022-10-24T17:56:51.026Z,97740.06
2022-10-24T18:01:54.568Z,97736.00
2022-10-24T18:06:58.333Z,97738.44
2022-10-24T18:12:03.894Z,97734.09
2022-10-24T18:17:07.421Z,97736.28
2022-10-24T18:22:13.108Z,97742.53
2022-10-24T18:27:20.248Z,97744.72
2022-10-24T18:32:23.739Z,97749.88
2022-10-24T18:37:28.192Z,97754.50
2022-10-24T18:43:06.360Z,97753.16
2022-10-24T18:48:13.137Z,97749.59
2022-10-24T18:53:27.368Z,97759.13
2022-10-24T18:58:31.919Z,97761.84
2022-10-24T19:03:38.719Z,97748.78
2022-10-24T19:08:44.651Z,97748.56
2022-10-24T19:13:48.207Z,97758.84
2022-10-24T19:18:56.452Z,97748.78
2022-10-24T19:24:00.614Z,97742.84
2022-10-24T19:29:05.829Z,97754.50
2022-10-24T19:34:10.462Z,97749.06
2022-10-24T19:39:16.918Z,97748.28
2022-10-24T19:44:22.184Z,97746.38
2022-10-24T19:49:30.851Z,97742.56
2022-10-24T19:54:34.818Z,97746.13
2022-10-24T19:59:43.199Z,97763.22
2022-10-24T20:04:50.802Z,97760.50
2022-10-24T20:09:54.459Z,97763.75
2022-10-24T20:14:59.022Z,97761.31
2022-10-24T20:20:12.810Z,97765.94
2022-10-24T20:25:16.737Z,97755.09
2022-10-24T20:30:20.513Z,97759.97
2022-10-24T20:40:34.935Z,97762.69
2022-10-24T20:45:42.901Z,97770.00
2022-10-24T20:50:46.756Z,97766.22
2022-10-24T20:55:50.275Z,97770.56
2022-10-24T21:00:54.444Z,97778.16
2022-10-24T21:06:05.104Z,97768.94
2022-10-24T21:11:13.878Z,97759.94
2022-10-24T21:16:17.242Z,97755.91
2022-10-24T21:21:21.746Z,97750.75
2022-10-24T21:26:25.464Z,97761.34
2022-10-24T21:31:32.757Z,97762.97
2022-10-24T21:36:38.929Z,97759.19
2022-10-24T21:41:42.919Z,97741.25
2022-10-24T21:46:46.890Z,97733.38
2022-10-24T21:51:53.181Z,97731.47
2022-10-24T21:56:56.617Z,97723.34
2022-10-24T22:02:00.403Z,97720.09
2022-10-24T22:07:16.400Z,97717.66
2022-10-24T22:12:21.365Z,97712.25
2022-10-24T22:17:24.691Z,97718.75
2022-10-24T22:22:30.787Z,97711.69
2022-10-24T22:27:34.502Z,97710.06
2022-10-24T22:32:38.717Z,97717.41
2022-10-24T22:37:44.672Z,97703.00
2022-10-24T22:42:48.823Z,97695.41
2022-10-24T22:47:55.378Z,97697.84
2022-10-24T22:52:59.345Z,97691.88
2022-10-24T22:58:05.131Z,97687.53
2022-10-24T23:03:37.834Z,97682.38
2022-10-24T23:08:45.863Z,97685.09
2022-10-24T23:13:53.647Z,97684.03
2022-10-24T23:18:57.346Z,97686.75
2022-10-24T23:24:01.736Z,97668.31
2022-10-24T23:29:29.063Z,97667.25
2022-10-24T23:34:35.627Z,97667.25
2022-10-24T23:39:42.049Z,97661.88
2022-10-24T23:44:45.852Z,97660.53
2022-10-24T23:50:07.247Z,97663.25
2022-10-24T23:55:16.974Z,97651.06
